createdAt,value
2019-05-17T00:00:24.438Z,15.07
2019-05-17T00:02:51.268Z,17.60
2019-05-17T00:05:18.110Z,15.17
2019-05-17T00:07:47.267Z,14.97
2019-05-17T00:10:13.396Z,17.87
2019-05-17T00:12:40.169Z,13.93
2019-05-17T00:15:07.275Z,15.87
2019-05-17T00:17:34.269Z,13.90
2019-05-17T00:20:01.104Z,16.93
2019-05-17T00:22:27.946Z,11.77
2019-05-17T00:24:56.842Z,16.67
2019-05-17T00:27:23.265Z,17.93
2019-05-17T00:29:50.107Z,12.87
2019-05-17T00:32:17.250Z,13.13
2019-05-17T00:34:44.195Z,18.73
2019-05-17T00:37:10.943Z,13.10
2019-05-17T00:39:37.789Z,11.83
2019-05-17T00:42:07.000Z,17.63
2019-05-17T00:44:33.237Z,15.03
2019-05-17T00:47:00.046Z,16.63
2019-05-17T00:49:26.902Z,14.83
2019-05-17T00:51:53.728Z,15.90
2019-05-17T00:54:21.496Z,18.57
2019-05-17T00:56:48.335Z,17.13
2019-05-17T00:59:17.045Z,21.60
2019-05-17T01:01:43.658Z,27.47
2019-05-17T01:04:10.514Z,30.67
2019-05-17T01:06:37.758Z,34.77
2019-05-17T01:09:07.617Z,29.27
2019-05-17T01:11:33.688Z,29.07
2019-05-17T01:14:00.952Z,30.87
2019-05-17T01:16:27.992Z,33.43
2019-05-17T01:18:57.191Z,35.67
2019-05-17T01:21:23.306Z,36.93
2019-05-17T01:23:50.373Z,42.27
2019-05-17T01:26:18.418Z,30.37
2019-05-17T01:28:46.739Z,31.97
2019-05-17T01:31:13.645Z,36.00
2019-05-17T01:33:40.495Z,37.17
2019-05-17T01:36:07.329Z,35.87
2019-05-17T01:38:34.295Z,34.60
2019-05-17T01:41:01.121Z,37.63
2019-05-17T01:43:28.053Z,33.93
2019-05-17T01:45:57.388Z,41.30
2019-05-17T01:48:24.297Z,41.10
2019-05-17T01:50:51.305Z,38.67
2019-05-17T01:53:18.204Z,43.27
2019-05-17T01:55:46.598Z,43.43
2019-05-17T01:58:13.408Z,41.20
2019-05-17T02:00:40.553Z,41.00
2019-05-17T02:03:07.498Z,35.07
2019-05-17T02:05:36.917Z,45.00
2019-05-17T02:08:02.828Z,40.33
2019-05-17T02:10:29.663Z,44.83
2019-05-17T02:12:57.067Z,45.03
2019-05-17T02:15:26.639Z,45.60
2019-05-17T02:17:52.649Z,47.10
2019-05-17T02:20:19.418Z,42.67
2019-05-17T02:22:47.296Z,44.10
2019-05-17T02:25:16.568Z,44.97
2019-05-17T02:27:44.671Z,46.47
2019-05-17T02:30:14.175Z,45.13
2019-05-17T02:32:42.771Z,44.20
2019-05-17T02:35:08.320Z,45.93
2019-05-17T02:37:35.110Z,48.83
2019-05-17T02:40:07.249Z,49.50
2019-05-17T02:42:33.345Z,46.83
2019-05-17T02:45:02.636Z,44.30
2019-05-17T02:47:28.058Z,46.87
2019-05-17T02:49:55.118Z,45.27
2019-05-17T02:52:22.972Z,45.33
2019-05-17T02:54:52.583Z,42.80
2019-05-17T02:57:18.398Z,42.23
2019-05-17T02:59:45.338Z,48.73
2019-05-17T03:02:12.817Z,41.60
2019-05-17T03:04:43.044Z,48.13
2019-05-17T03:07:08.423Z,46.57
2019-05-17T03:09:35.268Z,46.77
2019-05-17T03:12:03.426Z,46.43
2019-05-17T03:14:32.767Z,44.27
2019-05-17T03:16:59.174Z,46.93
2019-05-17T03:19:26.018Z,44.97
2019-05-17T03:21:53.548Z,41.33
2019-05-17T03:24:22.661Z,49.63
2019-05-17T03:26:52.381Z,44.33
2019-05-17T03:29:17.498Z,40.10
2019-05-17T03:31:50.996Z,36.93
2019-05-17T03:34:16.698Z,41.70
2019-05-17T03:36:46.246Z,44.27
2019-05-17T03:39:12.786Z,41.77
2019-05-17T03:41:38.231Z,41.47
2019-05-17T03:44:05.101Z,45.73
2019-05-17T03:46:33.442Z,47.17
2019-05-17T03:49:03.495Z,44.63
2019-05-17T03:51:28.777Z,46.80
2019-05-17T03:53:55.618Z,55.80
2019-05-17T03:56:22.550Z,58.57
2019-05-17T03:58:52.830Z,56.07
2019-05-17T04:01:17.826Z,43.37
2019-05-17T04:03:44.625Z,54.87
2019-05-17T04:06:13.315Z,51.63
2019-05-17T04:08:42.516Z,57.97
2019-05-17T04:11:22.184Z,59.70
2019-05-17T04:13:37.135Z,53.07
2019-05-17T04:16:08.698Z,50.27
2019-05-17T04:18:33.592Z,65.37
2019-05-17T04:21:03.468Z,64.87
2019-05-17T04:23:29.389Z,54.63
2019-05-17T04:25:56.361Z,56.87
2019-05-17T04:28:23.335Z,55.80
2019-05-17T04:30:52.752Z,59.00
2019-05-17T04:33:18.704Z,60.47
2019-05-17T04:35:45.544Z,59.07
2019-05-17T04:38:12.761Z,63.73
2019-05-17T04:40:42.922Z,61.10
2019-05-17T04:43:08.636Z,58.93
2019-05-17T04:45:35.480Z,55.23
2019-05-17T04:48:04.124Z,53.37
2019-05-17T04:50:33.491Z,63.57
2019-05-17T04:53:02.254Z,58.70
2019-05-17T04:55:27.659Z,58.23
2019-05-17T04:57:54.494Z,57.93
2019-05-17T05:00:21.903Z,57.10
2019-05-17T05:02:48.895Z,59.17
2019-05-17T05:05:15.696Z,63.50
2019-05-17T05:07:43.483Z,53.43
2019-05-17T05:10:13.469Z,52.63
2019-05-17T05:12:39.026Z,60.27
2019-05-17T05:15:05.775Z,62.30
2019-05-17T05:17:32.873Z,59.90
2019-05-17T05:20:02.658Z,64.67
2019-05-17T05:22:28.444Z,55.87
2019-05-17T05:24:55.281Z,54.57
2019-05-17T05:27:22.339Z,57.57
2019-05-17T05:29:49.168Z,44.73
2019-05-17T05:32:15.909Z,54.87
2019-05-17T05:34:43.282Z,52.80
2019-05-17T05:37:12.570Z,59.10
2019-05-17T05:39:41.359Z,46.37
2019-05-17T05:42:11.597Z,49.27
2019-05-17T05:44:36.379Z,51.03
2019-05-17T05:47:03.690Z,46.23
2019-05-17T05:49:32.079Z,48.70
2019-05-17T05:51:58.940Z,48.20
2019-05-17T05:54:25.784Z,49.60
2019-05-17T05:56:52.620Z,47.23
2019-05-17T05:59:19.361Z,46.93
2019-05-17T06:01:46.203Z,48.50
2019-05-17T06:04:13.042Z,44.67
2019-05-17T06:06:41.655Z,48.13
2019-05-17T06:09:08.301Z,50.10
2019-05-17T06:11:35.204Z,51.57
2019-05-17T06:14:01.953Z,53.90
2019-05-17T06:16:28.797Z,51.47
2019-05-17T06:18:56.036Z,45.87
2019-05-17T06:21:22.806Z,49.07
2019-05-17T06:23:51.617Z,37.33
2019-05-17T06:26:18.311Z,36.20
2019-05-17T06:28:45.267Z,39.37
2019-05-17T06:31:12.092Z,41.90
2019-05-17T06:33:38.879Z,36.87
2019-05-17T06:36:05.676Z,39.33
2019-05-17T06:38:33.020Z,38.47
2019-05-17T06:41:01.627Z,39.67
2019-05-17T06:43:28.647Z,42.90
2019-05-17T06:45:55.493Z,37.80
2019-05-17T06:48:22.662Z,42.27
2019-05-17T06:50:51.813Z,39.37
2019-05-17T06:53:17.862Z,37.60
2019-05-17T06:55:45.116Z,37.93
2019-05-17T06:58:12.091Z,39.33
2019-05-17T07:00:40.399Z,38.02
2019-05-17T07:03:09.597Z,42.62
2019-05-17T07:05:36.162Z,36.85
2019-05-17T07:08:03.158Z,39.98
2019-05-17T07:10:30.244Z,39.50
2019-05-17T07:12:59.622Z,42.62
2019-05-17T07:15:25.608Z,32.13
2019-05-17T07:17:52.425Z,36.68
2019-05-17T07:20:19.463Z,37.03
2019-05-17T07:22:46.311Z,38.33
2019-05-17T07:25:13.157Z,34.90
2019-05-17T07:27:44.853Z,36.95
2019-05-17T07:30:09.947Z,36.48
2019-05-17T07:32:36.968Z,31.62
2019-05-17T07:35:03.719Z,31.25
2019-05-17T07:37:30.741Z,38.38
2019-05-17T07:40:03.974Z,29.82
2019-05-17T07:42:26.064Z,28.38
2019-05-17T07:44:52.906Z,32.35
2019-05-17T07:47:20.268Z,30.23
2019-05-17T07:49:49.352Z,29.40
2019-05-17T07:52:15.579Z,27.30
2019-05-17T07:54:42.627Z,32.03
2019-05-17T07:57:10.363Z,28.12
2019-05-17T07:59:39.606Z,28.42
2019-05-17T08:02:05.914Z,33.55
2019-05-17T08:04:32.761Z,29.67
2019-05-17T08:06:59.897Z,25.62
2019-05-17T08:09:26.746Z,24.77
2019-05-17T08:11:53.591Z,26.30
2019-05-17T08:14:29.971Z,25.00
2019-05-17T08:16:50.170Z,32.03
2019-05-17T08:19:16.988Z,27.45
2019-05-17T08:21:43.828Z,30.57
2019-05-17T08:24:10.676Z,27.67
2019-05-17T08:26:37.509Z,22.42
2019-05-17T08:29:04.359Z,24.45
2019-05-17T08:31:31.190Z,22.87
2019-05-17T08:33:59.899Z,24.65
2019-05-17T08:36:26.523Z,25.45
2019-05-17T08:38:53.312Z,27.35
2019-05-17T08:41:20.846Z,29.23
2019-05-17T08:43:47.753Z,27.13
2019-05-17T08:46:15.446Z,24.70
2019-05-17T08:48:42.256Z,20.80
2019-05-17T08:51:10.783Z,26.50
2019-05-17T08:53:39.734Z,22.35
2019-05-17T08:56:05.957Z,23.98
2019-05-17T08:58:32.796Z,23.25
2019-05-17T09:01:00.347Z,24.40
2019-05-17T09:03:27.302Z,21.68
2019-05-17T09:05:54.146Z,24.57
2019-05-17T09:08:20.990Z,23.83
2019-05-17T09:10:50.432Z,23.80
2019-05-17T09:13:16.202Z,17.00
2019-05-17T09:15:42.995Z,20.08
2019-05-17T09:18:10.046Z,22.17
2019-05-17T09:20:37.011Z,17.70
2019-05-17T09:23:03.807Z,16.80
2019-05-17T09:25:30.616Z,21.40
2019-05-17T09:27:57.462Z,17.17
2019-05-17T09:30:25.677Z,26.70
2019-05-17T09:32:52.784Z,19.48
2019-05-17T09:35:20.763Z,20.65
2019-05-17T09:37:49.885Z,20.25
2019-05-17T09:40:16.592Z,18.30
2019-05-17T09:42:43.522Z,20.85
2019-05-17T09:45:10.369Z,15.43
2019-05-17T09:47:39.427Z,20.32
2019-05-17T09:50:05.691Z,18.67
2019-05-17T09:52:32.532Z,16.85
2019-05-17T09:55:00.406Z,16.35
2019-05-17T09:57:29.717Z,18.90
2019-05-17T09:59:56.037Z,19.87
2019-05-17T10:02:22.971Z,16.85
2019-05-17T10:04:50.281Z,19.42
2019-05-17T10:07:17.277Z,17.40
2019-05-17T10:09:44.110Z,19.55
2019-05-17T10:12:10.847Z,21.27
2019-05-17T10:14:38.099Z,17.82
2019-05-17T10:17:04.945Z,19.37
2019-05-17T10:19:31.985Z,18.25
2019-05-17T10:21:59.758Z,18.85
2019-05-17T10:24:35.971Z,15.58
2019-05-17T10:26:55.002Z,17.90
2019-05-17T10:29:21.810Z,14.45
2019-05-17T10:31:50.456Z,14.78
2019-05-17T10:34:16.932Z,16.32
2019-05-17T10:36:43.973Z,17.23
2019-05-17T10:39:10.727Z,14.20
2019-05-17T10:41:37.555Z,14.00
2019-05-17T10:44:04.396Z,12.50
2019-05-17T10:46:31.138Z,12.37
2019-05-17T10:48:58.144Z,16.40
2019-05-17T10:51:25.138Z,16.50
2019-05-17T10:53:51.966Z,15.00
2019-05-17T10:56:19.889Z,13.03
2019-05-17T10:58:49.233Z,12.75
2019-05-17T11:01:15.666Z,14.83
2019-05-17T11:03:42.416Z,13.30
2019-05-17T11:06:10.973Z,12.28
2019-05-17T11:08:37.988Z,11.90
2019-05-17T11:11:04.775Z,11.50
2019-05-17T11:13:31.617Z,13.55
2019-05-17T11:15:58.461Z,11.90
2019-05-17T11:18:25.300Z,12.47
2019-05-17T11:20:52.265Z,13.38
2019-05-17T11:23:18.985Z,12.68
2019-05-17T11:25:46.720Z,13.50
2019-05-17T11:28:13.797Z,14.03
2019-05-17T11:30:40.635Z,16.05
2019-05-17T11:33:07.478Z,13.60
2019-05-17T11:35:34.317Z,15.32
2019-05-17T11:38:01.159Z,15.60
2019-05-17T11:40:28.001Z,12.53
2019-05-17T11:42:55.049Z,14.80
2019-05-17T11:45:27.585Z,13.70
2019-05-17T11:47:50.768Z,12.15
2019-05-17T11:50:17.829Z,17.00
2019-05-17T11:52:44.926Z,13.70
2019-05-17T11:55:11.921Z,15.55
2019-05-17T11:57:39.047Z,14.05
2019-05-17T12:00:05.813Z,14.35
2019-05-17T12:02:32.762Z,14.15
2019-05-17T12:04:59.802Z,14.87
2019-05-17T12:07:26.950Z,17.73
2019-05-17T12:09:53.786Z,14.43
2019-05-17T12:12:21.407Z,16.50
2019-05-17T12:14:48.186Z,16.67
2019-05-17T12:17:15.053Z,20.40
2019-05-17T12:19:42.504Z,18.75
2019-05-17T12:22:09.329Z,16.20
2019-05-17T12:24:36.785Z,16.67
2019-05-17T12:27:03.622Z,19.20
2019-05-17T12:29:30.875Z,20.92
2019-05-17T12:31:57.620Z,18.55
2019-05-17T12:34:25.170Z,19.48
2019-05-17T12:36:52.255Z,19.52
2019-05-17T12:39:19.081Z,20.90
2019-05-17T12:41:45.901Z,16.90
2019-05-17T12:44:12.954Z,15.75
2019-05-17T12:46:41.348Z,16.42
2019-05-17T12:49:08.780Z,10.75
2019-05-17T12:51:35.623Z,11.85
2019-05-17T12:54:02.468Z,9.83
2019-05-17T12:56:29.489Z,10.48
2019-05-17T12:58:56.941Z,10.63
2019-05-17T13:01:23.698Z,12.68
2019-05-17T13:03:50.559Z,15.25
2019-05-17T13:06:17.276Z,12.70
2019-05-17T13:08:44.016Z,12.90
2019-05-17T13:11:11.374Z,9.75
2019-05-17T13:13:38.128Z,13.58
2019-05-17T13:16:17.329Z,8.08
2019-05-17T13:18:33.461Z,9.80
2019-05-17T13:21:00.193Z,9.23
2019-05-17T13:23:26.931Z,10.72
2019-05-17T13:25:54.050Z,13.13
2019-05-17T13:28:21.410Z,14.07
2019-05-17T13:30:48.184Z,13.22
2019-05-17T13:33:15.935Z,13.03
2019-05-17T13:35:42.769Z,15.13
2019-05-17T13:38:11.110Z,11.63
2019-05-17T13:40:39.896Z,17.50
2019-05-17T13:43:06.353Z,15.93
2019-05-17T13:45:33.098Z,17.15
2019-05-17T13:48:00.245Z,18.80
2019-05-17T13:50:27.043Z,19.50
2019-05-17T13:52:53.926Z,19.87
2019-05-17T13:55:20.679Z,15.70
2019-05-17T13:57:48.447Z,17.77
2019-05-17T14:00:15.168Z,15.13
2019-05-17T14:02:41.879Z,13.15
2019-05-17T14:05:08.644Z,14.87
2019-05-17T14:07:35.394Z,15.50
2019-05-17T14:10:02.624Z,10.90
2019-05-17T14:12:29.515Z,12.98
2019-05-17T14:14:56.335Z,9.53
2019-05-17T14:17:23.170Z,12.28
2019-05-17T14:19:50.012Z,9.30
2019-05-17T14:22:16.870Z,6.72
2019-05-17T14:24:43.929Z,7.17
2019-05-17T14:27:10.670Z,6.55
2019-05-17T14:29:37.589Z,9.25
2019-05-17T14:32:05.262Z,7.47
2019-05-17T14:34:32.055Z,7.35
2019-05-17T14:36:58.825Z,7.75
2019-05-17T14:39:25.694Z,6.75
2019-05-17T14:41:52.507Z,8.43
2019-05-17T14:44:19.359Z,6.90
2019-05-17T14:46:46.184Z,14.03
2019-05-17T14:49:13.072Z,7.25
2019-05-17T14:51:40.156Z,8.50
2019-05-17T14:54:07.354Z,6.92
2019-05-17T14:56:34.366Z,8.03
2019-05-17T14:59:01.133Z,7.47
2019-05-17T15:01:28.771Z,10.60
2019-05-17T15:03:55.688Z,6.22
2019-05-17T15:06:22.453Z,7.35
2019-05-17T15:08:49.297Z,7.60
2019-05-17T15:11:16.171Z,6.22
2019-05-17T15:13:42.893Z,7.47
2019-05-17T15:16:09.727Z,6.97
2019-05-17T15:18:36.566Z,6.40
2019-05-17T15:21:03.289Z,11.73
2019-05-17T15:23:30.183Z,6.37
2019-05-17T15:25:57.109Z,8.73
2019-05-17T15:28:23.795Z,4.40
2019-05-17T15:30:50.661Z,5.78
2019-05-17T15:33:17.406Z,6.37
2019-05-17T15:35:44.142Z,6.35
2019-05-17T15:38:11.364Z,6.40
2019-05-17T15:40:38.131Z,6.03
2019-05-17T15:43:04.883Z,5.25
2019-05-17T15:45:31.666Z,8.80
2019-05-17T15:47:58.465Z,8.98
2019-05-17T15:50:25.199Z,12.78
2019-05-17T15:52:52.050Z,6.22
2019-05-17T15:55:18.783Z,11.38
2019-05-17T15:57:45.633Z,8.23
2019-05-17T16:00:12.566Z,12.53
2019-05-17T16:02:39.296Z,7.63
2019-05-17T16:05:06.039Z,5.70
2019-05-17T16:07:32.882Z,5.90
2019-05-17T16:09:59.628Z,10.80
2019-05-17T16:12:26.470Z,10.60
2019-05-17T16:14:53.313Z,10.97
2019-05-17T16:17:20.153Z,7.30
2019-05-17T16:19:46.995Z,7.43
2019-05-17T16:22:13.835Z,9.50
2019-05-17T16:24:40.579Z,7.50
2019-05-17T16:27:07.340Z,8.73
2019-05-17T16:29:34.152Z,6.00
2019-05-17T16:32:00.893Z,11.27
2019-05-17T16:34:27.622Z,8.73
2019-05-17T16:36:54.464Z,5.43
2019-05-17T16:39:21.208Z,9.87
2019-05-17T16:41:47.950Z,5.27
2019-05-17T16:44:15.197Z,5.23
2019-05-17T16:46:41.946Z,5.70
2019-05-17T16:49:08.790Z,5.60
2019-05-17T16:51:35.642Z,6.70
2019-05-17T16:54:02.340Z,4.67
2019-05-17T16:56:29.115Z,5.90
2019-05-17T16:58:55.948Z,7.50
2019-05-17T17:01:22.895Z,5.73
2019-05-17T17:03:49.625Z,5.07
2019-05-17T17:06:16.481Z,6.50
2019-05-17T17:08:43.204Z,6.37
2019-05-17T17:11:09.943Z,6.37
2019-05-17T17:13:36.786Z,6.43
2019-05-17T17:16:03.613Z,5.30
2019-05-17T17:18:30.303Z,6.90
2019-05-17T17:20:57.106Z,5.23
2019-05-17T17:23:23.880Z,7.77
2019-05-17T17:25:50.700Z,5.20
2019-05-17T17:28:17.819Z,6.33
2019-05-17T17:30:44.585Z,8.63
2019-05-17T17:33:11.334Z,4.37
2019-05-17T17:35:38.186Z,6.47
2019-05-17T17:38:05.073Z,7.63
2019-05-17T17:40:31.975Z,9.10
2019-05-17T17:42:58.997Z,6.00
2019-05-17T17:45:25.749Z,6.13
2019-05-17T17:47:52.568Z,7.27
2019-05-17T17:50:19.837Z,4.23
2019-05-17T17:52:46.672Z,5.00
2019-05-17T17:55:13.403Z,4.70
2019-05-17T17:57:41.591Z,6.83
2019-05-17T18:00:08.754Z,4.20
2019-05-17T18:02:35.577Z,5.07
2019-05-17T18:05:02.577Z,4.40
2019-05-17T18:07:29.581Z,4.13
2019-05-17T18:09:56.581Z,4.87
2019-05-17T18:12:23.544Z,4.63
2019-05-17T18:14:50.268Z,5.57
2019-05-17T18:17:16.967Z,3.30
2019-05-17T18:19:43.805Z,3.47
2019-05-17T18:22:10.808Z,4.53
2019-05-17T18:24:37.860Z,4.30
2019-05-17T18:32:55.269Z,6.63
2019-05-17T18:35:22.875Z,9.00
2019-05-17T18:40:18.207Z,5.40
2019-05-17T18:42:45.144Z,3.33
2019-05-17T18:50:51.750Z,9.47
2019-05-17T18:53:18.480Z,4.33
2019-05-17T18:55:45.329Z,4.97
2019-05-17T18:58:12.371Z,5.87
2019-05-17T19:00:39.113Z,6.07
2019-05-17T19:03:05.846Z,6.97
2019-05-17T19:05:33.005Z,5.83
2019-05-17T19:07:59.743Z,8.13
2019-05-17T19:10:26.887Z,6.50
2019-05-17T19:12:54.233Z,6.87
2019-05-17T19:15:20.983Z,11.70
2019-05-17T19:17:47.920Z,15.93
2019-05-17T19:20:14.756Z,7.40
2019-05-17T19:22:42.008Z,6.33
2019-05-17T19:25:08.952Z,6.23
2019-05-17T19:27:35.907Z,6.03
2019-05-17T19:30:02.653Z,12.13
2019-05-17T19:32:30.100Z,9.00
2019-05-17T19:34:57.317Z,5.10
2019-05-17T19:37:24.184Z,7.90
2019-05-17T19:39:51.849Z,6.83
2019-05-17T19:42:18.704Z,10.43
2019-05-17T19:44:57.983Z,8.83
2019-05-17T19:47:14.314Z,5.73
2019-05-17T19:49:41.691Z,11.90
2019-05-17T19:52:08.410Z,7.27
2019-05-17T19:54:35.356Z,7.20
2019-05-17T19:57:02.604Z,5.90
2019-05-17T19:59:29.813Z,7.87
2019-05-17T20:01:57.109Z,7.93
2019-05-17T20:04:24.568Z,6.33
2019-05-17T20:06:51.711Z,7.97
2019-05-17T20:09:18.865Z,11.80
2019-05-17T20:11:46.127Z,6.33
2019-05-17T20:14:13.159Z,7.63
2019-05-17T20:16:40.323Z,8.20
2019-05-17T20:19:07.466Z,7.50
2019-05-17T20:21:34.617Z,8.37
2019-05-17T20:24:01.656Z,11.43
2019-05-17T20:26:30.166Z,10.37
2019-05-17T20:28:57.285Z,8.63
2019-05-17T20:31:24.463Z,10.53
2019-05-17T20:33:51.796Z,7.67
2019-05-17T20:36:18.781Z,8.80
2019-05-17T20:38:45.911Z,10.27
2019-05-17T20:41:13.329Z,7.60
2019-05-17T20:43:40.485Z,10.27
2019-05-17T20:46:07.627Z,8.43
2019-05-17T20:48:34.479Z,9.13
2019-05-17T20:51:01.786Z,10.53
2019-05-17T20:53:28.479Z,8.43
2019-05-17T20:55:55.506Z,12.33
2019-05-17T20:58:22.214Z,8.77
2019-05-17T21:00:49.043Z,11.53
2019-05-17T21:03:16.038Z,10.03
2019-05-17T21:05:42.720Z,9.50
2019-05-17T21:08:09.524Z,11.13
2019-05-17T21:10:37.081Z,14.17
2019-05-17T21:13:03.930Z,14.80
2019-05-17T21:15:31.031Z,11.43
2019-05-17T21:17:59.598Z,13.53
2019-05-17T21:20:27.172Z,10.30
2019-05-17T21:25:39.645Z,12.67
2019-05-17T21:28:06.552Z,12.37
2019-05-17T21:30:34.265Z,12.57
2019-05-17T21:33:01.213Z,14.43
2019-05-17T21:35:28.338Z,10.70
2019-05-17T21:37:55.215Z,9.57
2019-05-17T21:40:22.577Z,18.57
2019-05-17T21:42:49.612Z,12.53
2019-05-17T21:45:16.903Z,12.43
2019-05-17T21:47:44.694Z,15.60
2019-05-17T21:50:11.591Z,8.73
2019-05-17T21:52:38.793Z,9.60
2019-05-17T21:55:06.670Z,12.53
2019-05-17T21:57:33.470Z,9.53
2019-05-17T22:00:01.301Z,9.27
2019-05-17T22:02:28.196Z,10.00
2019-05-17T22:04:55.570Z,11.13
2019-05-17T22:07:22.497Z,11.90
2019-05-17T22:09:49.341Z,14.03
2019-05-17T22:12:16.188Z,13.40
2019-05-17T22:14:43.026Z,17.77
2019-05-17T22:17:09.851Z,12.53
2019-05-17T22:19:36.610Z,18.47
2019-05-17T22:22:03.448Z,10.93
2019-05-17T22:24:30.285Z,10.77
2019-05-17T22:26:57.017Z,13.60
2019-05-17T22:29:23.757Z,12.23
2019-05-17T22:31:50.604Z,14.77
2019-05-17T22:34:17.446Z,11.57
2019-05-17T22:36:45.039Z,12.50
2019-05-17T22:39:12.160Z,17.83
2019-05-17T22:41:39.455Z,14.30
2019-05-17T22:44:06.246Z,13.87
2019-05-17T22:46:36.165Z,14.73
2019-05-17T22:49:01.457Z,13.50
2019-05-17T22:51:28.196Z,15.73
2019-05-17T22:53:55.043Z,13.27
2019-05-17T22:56:21.889Z,15.23
2019-05-17T22:58:49.363Z,12.40
2019-05-17T23:01:16.186Z,14.27
2019-05-17T23:03:43.176Z,14.60
2019-05-17T23:06:09.979Z,11.87
2019-05-17T23:08:38.547Z,11.30
2019-05-17T23:11:05.291Z,11.73
2019-05-17T23:13:32.429Z,11.60
2019-05-17T23:15:59.270Z,14.10
2019-05-17T23:18:25.982Z,13.10
2019-05-17T23:20:52.748Z,12.73
2019-05-17T23:23:19.900Z,14.60
2019-05-17T23:25:46.753Z,15.53
2019-05-17T23:28:13.961Z,12.57
2019-05-17T23:33:22.634Z,15.93
2019-05-17T23:38:25.096Z,11.97
2019-05-17T23:40:52.651Z,15.80
2019-05-17T23:43:20.294Z,12.50
2019-05-17T23:45:47.274Z,11.40
2019-05-17T23:48:14.233Z,10.27
2019-05-17T23:50:42.136Z,11.20
2019-05-17T23:53:09.191Z,10.23
2019-05-17T23:55:36.037Z,12.00
